createdAt,value
2023-01-18T00:02:15.679Z,84.33
2023-01-18T00:04:43.322Z,84.76
2023-01-18T00:07:12.247Z,84.54
2023-01-18T00:09:39.708Z,84.61
2023-01-18T00:12:07.413Z,84.68
2023-01-18T00:14:34.949Z,84.58
2023-01-18T00:17:02.432Z,84.66
2023-01-18T00:19:29.859Z,84.74
2023-01-18T00:21:57.850Z,84.67
2023-01-18T00:24:27.800Z,84.74
2023-01-18T00:26:55.357Z,84.53
2023-01-18T00:29:22.920Z,84.65
2023-01-18T00:31:50.489Z,84.68
2023-01-18T00:34:18.141Z,84.66
2023-01-18T00:36:45.609Z,84.88
2023-01-18T00:39:15.432Z,84.74
2023-01-18T00:42:04.945Z,85.06
2023-01-18T00:44:31.946Z,84.94
2023-01-18T00:46:59.506Z,84.99
2023-01-18T00:49:27.050Z,84.75
2023-01-18T00:51:56.783Z,84.74
2023-01-18T00:54:25.565Z,84.97
2023-01-18T00:56:54.533Z,84.87
2023-01-18T00:59:22.038Z,84.86
2023-01-18T01:03:23.501Z,84.78
2023-01-18T01:06:08.555Z,84.88
2023-01-18T01:08:36.110Z,84.71
2023-01-18T01:11:07.620Z,84.77
2023-01-18T01:13:52.672Z,84.84
2023-01-18T01:16:37.482Z,85.02
2023-01-18T01:19:23.717Z,85.00
2023-01-18T01:22:08.507Z,84.95
2023-01-18T01:24:53.502Z,85.11
2023-01-18T01:27:21.033Z,85.07
2023-01-18T01:29:48.557Z,84.99
2023-01-18T01:32:16.089Z,84.93
2023-01-18T01:34:44.900Z,84.92
2023-01-18T01:37:12.369Z,84.75
2023-01-18T01:39:39.856Z,85.10
2023-01-18T01:42:07.389Z,85.06
2023-01-18T01:44:42.045Z,85.03
2023-01-18T01:47:10.724Z,84.83
2023-01-18T01:49:40.121Z,85.00
2023-01-18T01:52:09.679Z,84.91
2023-01-18T01:54:37.918Z,85.13
2023-01-18T01:57:06.342Z,84.90
2023-01-18T01:59:33.878Z,84.85
2023-01-18T02:02:01.427Z,84.86
2023-01-18T02:04:28.943Z,85.12
2023-01-18T02:06:56.429Z,84.88
2023-01-18T02:09:25.345Z,85.02
2023-01-18T02:11:52.792Z,84.99
2023-01-18T02:14:20.369Z,84.79
2023-01-18T02:16:52.680Z,84.98
2023-01-18T02:19:28.625Z,84.94
2023-01-18T02:21:56.837Z,84.98
2023-01-18T02:24:32.042Z,85.13
2023-01-18T02:27:04.241Z,84.89
2023-01-18T02:29:38.860Z,85.20
2023-01-18T02:32:13.768Z,85.15
2023-01-18T02:34:42.144Z,84.91
2023-01-18T02:37:12.012Z,84.86
2023-01-18T02:39:42.447Z,84.76
2023-01-18T02:42:28.666Z,85.17
2023-01-18T02:45:14.815Z,85.05
2023-01-18T02:47:42.638Z,85.01
2023-01-18T02:50:10.954Z,85.09
2023-01-18T02:52:39.495Z,84.89
2023-01-18T02:55:07.608Z,84.71
2023-01-18T02:57:35.064Z,84.95
2023-01-18T03:00:05.062Z,84.88
2023-01-18T03:02:32.604Z,84.92
2023-01-18T03:05:00.193Z,84.70
2023-01-18T03:07:29.876Z,84.94
2023-01-18T03:09:57.846Z,84.74
2023-01-18T03:12:25.762Z,84.83
2023-01-18T03:14:54.620Z,84.65
2023-01-18T03:17:24.518Z,84.70
2023-01-18T03:20:11.190Z,84.88
2023-01-18T03:22:57.277Z,84.96
2023-01-18T03:25:26.249Z,84.96
2023-01-18T03:28:11.425Z,84.88
2023-01-18T03:30:56.371Z,84.83
2023-01-18T03:33:44.895Z,84.68
2023-01-18T03:36:13.142Z,84.81
2023-01-18T03:38:42.396Z,84.82
2023-01-18T03:41:09.933Z,84.86
2023-01-18T03:43:37.696Z,84.83
2023-01-18T03:46:05.685Z,84.81
2023-01-18T03:48:34.625Z,84.67
2023-01-18T03:51:03.711Z,84.58
2023-01-18T03:53:32.787Z,84.56
2023-01-18T03:56:01.918Z,84.72
2023-01-18T03:58:31.320Z,84.79
2023-01-18T04:00:58.847Z,84.54
2023-01-18T04:03:26.373Z,84.56
2023-01-18T04:05:55.266Z,84.48
2023-01-18T04:08:22.756Z,84.49
2023-01-18T04:10:50.265Z,84.39
2023-01-18T04:13:17.850Z,84.39
2023-01-18T04:15:45.376Z,84.41
2023-01-18T04:18:12.913Z,84.51
2023-01-18T04:20:40.393Z,84.50
2023-01-18T04:23:09.254Z,84.51
2023-01-18T04:25:38.369Z,84.45
2023-01-18T04:28:06.219Z,84.41
2023-01-18T04:30:33.917Z,84.55
2023-01-18T04:33:01.938Z,84.65
2023-01-18T04:35:29.507Z,84.47
2023-01-18T04:37:56.985Z,84.64
2023-01-18T04:40:25.817Z,84.56
2023-01-18T04:42:54.210Z,84.55
2023-01-18T04:45:21.725Z,84.82
2023-01-18T04:47:49.173Z,84.84
2023-01-18T04:50:16.978Z,84.75
2023-01-18T04:52:44.727Z,84.67
2023-01-18T04:55:15.833Z,84.74
2023-01-18T04:57:44.990Z,84.71
2023-01-18T05:00:13.185Z,84.74
2023-01-18T05:02:40.795Z,84.72
2023-01-18T05:05:08.598Z,84.66
2023-01-18T05:07:36.136Z,84.65
2023-01-18T05:10:03.958Z,84.83
2023-01-18T05:12:31.633Z,84.82
2023-01-18T05:15:00.490Z,84.73
2023-01-18T05:17:30.516Z,84.84
2023-01-18T05:19:58.114Z,84.75
2023-01-18T05:22:25.681Z,84.66
2023-01-18T05:24:53.529Z,84.67
2023-01-18T05:27:21.039Z,84.56
2023-01-18T05:29:48.792Z,84.78
2023-01-18T05:32:17.664Z,84.80
2023-01-18T05:34:45.186Z,84.51
2023-01-18T05:37:12.685Z,84.61
2023-01-18T05:39:40.190Z,84.67
2023-01-18T05:42:08.515Z,84.54
2023-01-18T05:44:36.015Z,84.56
2023-01-18T05:47:03.422Z,84.72
2023-01-18T05:49:32.314Z,84.59
2023-01-18T05:51:59.824Z,84.36
2023-01-18T05:54:27.305Z,84.44
2023-01-18T05:56:54.833Z,84.35
2023-01-18T05:59:22.372Z,84.33
2023-01-18T06:01:50.115Z,84.46
2023-01-18T06:04:17.853Z,84.19
2023-01-18T06:06:46.770Z,84.45
2023-01-18T06:09:14.272Z,84.54
2023-01-18T06:11:41.786Z,84.53
2023-01-18T06:14:09.466Z,84.79
2023-01-18T06:16:37.012Z,84.67
2023-01-18T06:19:05.641Z,84.57
2023-01-18T06:21:33.155Z,84.42
2023-01-18T06:24:02.049Z,84.56
2023-01-18T06:26:31.166Z,84.55
2023-01-18T06:28:58.609Z,84.38
2023-01-18T06:31:26.121Z,84.45
2023-01-18T06:33:53.706Z,84.47
2023-01-18T06:36:21.241Z,84.52
2023-01-18T06:38:48.672Z,84.68
2023-01-18T06:41:17.908Z,84.82
2023-01-18T06:43:45.501Z,84.63
2023-01-18T06:46:12.972Z,84.84
2023-01-18T06:48:40.603Z,84.88
2023-01-18T06:51:08.319Z,84.80
2023-01-18T06:53:37.865Z,84.96
2023-01-18T06:56:10.105Z,84.93
2023-01-18T06:58:39.016Z,84.88
2023-01-18T07:01:06.883Z,84.72
2023-01-18T07:03:34.745Z,84.76
2023-01-18T07:06:02.836Z,84.87
2023-01-18T07:08:31.421Z,84.75
2023-01-18T07:10:59.445Z,84.97
2023-01-18T07:13:27.033Z,84.83
2023-01-18T07:16:00.747Z,84.82
2023-01-18T07:18:28.837Z,85.03
2023-01-18T07:20:59.961Z,85.02
2023-01-18T07:23:27.480Z,85.06
2023-01-18T07:26:01.554Z,84.82
2023-01-18T07:28:29.148Z,84.82
2023-01-18T07:30:58.015Z,84.88
2023-01-18T07:33:25.489Z,85.03
2023-01-18T07:35:53.312Z,85.08
2023-01-18T07:38:20.958Z,85.06
2023-01-18T07:40:48.501Z,85.12
2023-01-18T07:43:16.218Z,85.02
2023-01-18T07:45:43.846Z,85.18
2023-01-18T07:48:12.704Z,85.16
2023-01-18T07:50:40.162Z,85.02
2023-01-18T07:53:09.224Z,84.90
2023-01-18T07:55:38.781Z,85.06
2023-01-18T07:58:06.242Z,85.09
2023-01-18T08:00:34.753Z,84.91
2023-01-18T08:03:02.784Z,85.04
2023-01-18T08:05:31.802Z,85.06
2023-01-18T08:07:59.540Z,84.90
2023-01-18T08:10:27.554Z,84.95
2023-01-18T08:12:55.162Z,85.11
2023-01-18T08:15:22.736Z,85.19
2023-01-18T08:17:51.234Z,85.02
2023-01-18T08:20:20.830Z,84.86
2023-01-18T08:22:49.678Z,85.06
2023-01-18T08:25:17.500Z,84.98
2023-01-18T08:27:45.016Z,85.15
2023-01-18T08:30:12.848Z,84.79
2023-01-18T08:32:40.865Z,84.94
2023-01-18T08:35:08.939Z,84.93
2023-01-18T08:37:36.350Z,84.66
2023-01-18T08:40:05.674Z,85.28
2023-01-18T08:42:33.097Z,84.89
2023-01-18T08:45:00.859Z,84.94
2023-01-18T08:47:28.376Z,84.83
2023-01-18T08:49:56.461Z,84.79
2023-01-18T08:52:24.032Z,84.75
2023-01-18T08:54:52.422Z,84.67
2023-01-18T08:57:21.319Z,84.81
2023-01-18T08:59:48.718Z,84.55
2023-01-18T09:02:16.776Z,84.71
2023-01-18T09:04:48.438Z,84.59
2023-01-18T09:07:15.908Z,84.65
2023-01-18T09:09:44.793Z,84.55
2023-01-18T09:12:12.334Z,84.33
2023-01-18T09:14:41.240Z,84.32
2023-01-18T09:17:08.736Z,84.19
2023-01-18T09:19:36.139Z,84.00
2023-01-18T09:22:03.667Z,84.25
2023-01-18T09:24:31.204Z,84.19
2023-01-18T09:26:58.764Z,84.02
2023-01-18T09:29:26.360Z,83.37
2023-01-18T09:31:55.920Z,83.58
2023-01-18T09:34:23.590Z,83.15
2023-01-18T09:36:51.327Z,82.97
2023-01-18T09:39:18.969Z,83.66
2023-01-18T09:41:49.314Z,83.39
2023-01-18T09:44:18.579Z,82.94
2023-01-18T09:46:46.221Z,83.09
2023-01-18T09:49:16.661Z,83.61
2023-01-18T09:51:45.908Z,83.09
2023-01-18T09:54:19.450Z,82.94
2023-01-18T09:56:48.471Z,82.62
2023-01-18T09:59:19.287Z,82.97
2023-01-18T10:01:47.031Z,84.07
2023-01-18T10:04:17.417Z,83.61
2023-01-18T10:06:45.940Z,82.99
2023-01-18T10:09:15.551Z,83.47
2023-01-18T10:11:47.260Z,83.03
2023-01-18T10:14:16.826Z,82.86
2023-01-18T10:16:44.393Z,83.13
2023-01-18T10:19:14.652Z,83.21
2023-01-18T10:21:47.419Z,82.17
2023-01-18T10:24:22.085Z,82.10
2023-01-18T10:26:49.989Z,82.22
2023-01-18T10:29:18.157Z,81.94
2023-01-18T10:31:47.324Z,81.71
2023-01-18T10:34:15.597Z,82.50
2023-01-18T10:36:43.979Z,82.08
2023-01-18T10:39:23.824Z,82.08
2023-01-18T10:41:51.418Z,81.64
2023-01-18T10:44:18.894Z,81.93
2023-01-18T10:46:46.504Z,81.59
2023-01-18T10:49:28.963Z,81.30
2023-01-18T10:51:56.500Z,80.99
2023-01-18T10:54:27.121Z,80.98
2023-01-18T10:57:02.225Z,80.95
2023-01-18T10:59:33.213Z,80.71
2023-01-18T11:02:00.852Z,80.82
2023-01-18T11:04:29.150Z,81.10
2023-01-18T11:06:57.162Z,80.63
2023-01-18T11:09:40.477Z,80.62
2023-01-18T11:12:36.121Z,80.56
2023-01-18T11:15:23.732Z,80.81
2023-01-18T11:18:01.434Z,81.07
2023-01-18T11:20:33.335Z,81.17
2023-01-18T11:23:01.916Z,80.42
2023-01-18T11:25:37.634Z,80.19
2023-01-18T11:28:07.412Z,81.09
2023-01-18T11:30:34.983Z,80.76
2023-01-18T11:33:02.666Z,80.27
2023-01-18T11:35:32.320Z,80.31
2023-01-18T11:38:00.553Z,80.30
2023-01-18T11:40:28.966Z,80.12
2023-01-18T11:42:59.677Z,80.54
2023-01-18T11:45:27.838Z,80.13
2023-01-18T11:47:57.956Z,80.32
2023-01-18T11:50:28.352Z,79.85
2023-01-18T11:52:57.615Z,79.91
2023-01-18T11:55:26.585Z,79.61
2023-01-18T11:57:54.501Z,79.80
2023-01-18T12:00:28.658Z,79.88
2023-01-18T12:03:04.161Z,79.94
2023-01-18T12:05:42.391Z,79.77
2023-01-18T12:08:15.881Z,79.66
2023-01-18T12:10:45.201Z,79.59
2023-01-18T12:13:20.198Z,79.66
2023-01-18T12:16:00.977Z,79.15
2023-01-18T12:18:41.772Z,79.48
2023-01-18T12:21:09.845Z,77.44
2023-01-18T12:23:45.140Z,79.05
2023-01-18T12:26:16.719Z,79.10
2023-01-18T12:28:50.419Z,79.39
2023-01-18T12:31:22.246Z,79.27
2023-01-18T12:33:54.618Z,79.15
2023-01-18T12:36:29.346Z,79.31
2023-01-18T12:38:57.316Z,78.77
2023-01-18T12:41:37.818Z,78.97
2023-01-18T12:44:30.615Z,79.36
2023-01-18T12:47:02.848Z,79.13
2023-01-18T12:49:30.798Z,79.14
2023-01-18T12:52:12.930Z,79.20
2023-01-18T12:54:45.998Z,79.07
2023-01-18T12:57:14.070Z,79.50
2023-01-18T12:59:42.228Z,79.47
2023-01-18T13:02:24.582Z,79.49
2023-01-18T13:04:52.754Z,79.98
2023-01-18T13:07:21.897Z,79.59
2023-01-18T13:09:50.079Z,79.60
2023-01-18T13:12:17.567Z,80.12
2023-01-18T13:14:45.440Z,79.84
2023-01-18T13:17:14.831Z,79.61
2023-01-18T13:19:42.996Z,79.48
2023-01-18T13:22:13.861Z,79.42
2023-01-18T13:24:46.371Z,79.63
2023-01-18T13:27:14.278Z,79.61
2023-01-18T13:29:41.972Z,79.84
2023-01-18T13:32:28.838Z,79.77
2023-01-18T13:35:54.361Z,78.38
2023-01-18T13:38:40.299Z,77.04
2023-01-18T13:41:10.553Z,76.34
2023-01-18T13:44:03.804Z,75.94
2023-01-18T13:46:33.950Z,75.87
2023-01-18T13:49:03.153Z,74.73
2023-01-18T13:51:57.367Z,74.60
2023-01-18T13:55:02.179Z,73.73
2023-01-18T13:57:31.635Z,73.28
2023-01-18T14:00:00.053Z,73.74
2023-01-18T14:02:32.027Z,72.59
2023-01-18T14:05:02.489Z,73.18
2023-01-18T14:07:38.674Z,72.13
2023-01-18T14:10:08.220Z,71.84
2023-01-18T14:12:49.738Z,71.71
2023-01-18T14:15:47.237Z,71.29
2023-01-18T14:18:22.156Z,72.94
2023-01-18T14:21:16.483Z,72.13
2023-01-18T14:24:06.444Z,71.94
2023-01-18T14:26:36.161Z,71.09
2023-01-18T14:31:21.276Z,72.11
2023-01-18T14:33:49.613Z,71.56
2023-01-18T14:36:21.688Z,72.01
2023-01-18T14:39:07.283Z,72.05
2023-01-18T14:41:35.354Z,71.77
2023-01-18T14:44:03.079Z,72.30
2023-01-18T14:46:32.741Z,72.22
2023-01-18T14:49:02.552Z,72.23
2023-01-18T14:51:31.978Z,72.34
2023-01-18T14:54:01.958Z,72.57
2023-01-18T14:56:31.962Z,72.47
2023-01-18T14:59:01.414Z,72.47
2023-01-18T15:01:33.324Z,72.94
2023-01-18T15:04:02.479Z,73.47
2023-01-18T15:06:41.782Z,73.10
2023-01-18T15:09:10.442Z,73.29
2023-01-18T15:11:39.110Z,74.18
2023-01-18T15:14:10.208Z,73.78
2023-01-18T15:16:39.969Z,73.53
2023-01-18T15:19:14.679Z,73.81
2023-01-18T15:21:43.720Z,73.96
2023-01-18T15:24:15.412Z,74.10
2023-01-18T15:26:45.829Z,73.90
2023-01-18T15:29:17.703Z,73.76
2023-01-18T15:31:52.766Z,74.32
2023-01-18T15:34:26.965Z,74.10
2023-01-18T15:36:56.452Z,74.31
2023-01-18T15:39:24.180Z,74.95
2023-01-18T15:41:52.829Z,74.56
2023-01-18T15:44:43.481Z,74.56
2023-01-18T15:47:17.755Z,75.09
2023-01-18T15:49:49.917Z,74.95
2023-01-18T15:52:17.911Z,74.82
2023-01-18T15:54:50.606Z,75.29
2023-01-18T15:57:20.611Z,75.22
2023-01-18T15:59:49.150Z,75.14
2023-01-18T16:02:20.045Z,74.97
2023-01-18T16:04:49.689Z,74.91
2023-01-18T16:07:37.725Z,75.27
2023-01-18T16:10:30.448Z,75.73
2023-01-18T16:13:22.536Z,75.49
2023-01-18T16:16:09.418Z,75.63
2023-01-18T16:18:43.864Z,75.51
2023-01-18T16:21:15.490Z,75.82
2023-01-18T16:23:46.147Z,75.68
2023-01-18T16:26:15.137Z,75.78
2023-01-18T16:28:42.951Z,75.34
2023-01-18T16:31:10.635Z,75.80
2023-01-18T16:33:38.295Z,75.50
2023-01-18T16:36:24.224Z,76.02
2023-01-18T16:38:51.947Z,75.98
2023-01-18T16:41:19.631Z,75.58
2023-01-18T16:43:49.330Z,75.98
2023-01-18T16:46:17.215Z,75.98
2023-01-18T16:48:44.969Z,75.86
2023-01-18T16:51:18.631Z,75.44
2023-01-18T16:53:48.224Z,75.96
2023-01-18T16:56:16.624Z,76.12
2023-01-18T16:58:44.770Z,75.79
2023-01-18T17:01:15.716Z,75.80
2023-01-18T17:03:43.963Z,75.75
2023-01-18T17:06:17.676Z,75.84
2023-01-18T17:08:45.930Z,75.95
2023-01-18T17:11:13.925Z,75.52
2023-01-18T17:13:42.052Z,75.59
2023-01-18T17:16:14.208Z,75.26
2023-01-18T17:18:42.189Z,75.42
2023-01-18T17:21:11.096Z,75.44
2023-01-18T17:23:40.910Z,75.23
2023-01-18T17:26:09.082Z,75.03
2023-01-18T17:28:36.747Z,75.10
2023-01-18T17:31:04.567Z,75.39
2023-01-18T17:33:32.661Z,75.50
2023-01-18T17:36:00.395Z,74.96
2023-01-18T17:41:00.609Z,75.30
2023-01-18T17:43:34.027Z,75.02
2023-01-18T17:46:04.113Z,74.91
2023-01-18T17:48:31.963Z,74.79
2023-01-18T17:50:59.708Z,75.05
2023-01-18T17:53:27.487Z,75.05
2023-01-18T17:55:55.289Z,74.84
2023-01-18T17:58:24.337Z,74.62
2023-01-18T18:00:52.298Z,74.77
2023-01-18T18:03:20.685Z,75.50
2023-01-18T18:05:48.438Z,74.90
2023-01-18T18:08:18.451Z,74.94
2023-01-18T18:10:46.163Z,75.07
2023-01-18T18:13:13.831Z,75.20
2023-01-18T18:15:49.261Z,74.89
2023-01-18T18:18:24.196Z,74.98
2023-01-18T18:20:56.807Z,74.80
2023-01-18T18:23:24.559Z,74.68
2023-01-18T18:25:52.242Z,74.63
2023-01-18T18:28:20.000Z,74.71
2023-01-18T18:30:49.565Z,74.78
2023-01-18T18:33:18.305Z,75.40
2023-01-18T18:35:46.363Z,74.83
2023-01-18T18:38:15.318Z,75.03
2023-01-18T18:40:43.143Z,75.17
2023-01-18T18:43:10.865Z,75.29
2023-01-18T18:45:38.614Z,75.50
2023-01-18T18:48:08.030Z,75.50
2023-01-18T18:50:35.698Z,75.93
2023-01-18T18:53:03.498Z,75.85
2023-01-18T18:55:31.314Z,76.19
2023-01-18T18:57:59.203Z,76.46
2023-01-18T19:00:27.312Z,76.33
2023-01-18T19:02:58.979Z,76.18
2023-01-18T19:05:28.708Z,76.44
2023-01-18T19:07:56.539Z,76.50
2023-01-18T19:10:27.369Z,76.57
2023-01-18T19:12:55.920Z,76.60
2023-01-18T19:15:23.760Z,76.77
2023-01-18T19:17:52.194Z,76.67
2023-01-18T19:20:20.709Z,76.85
2023-01-18T19:22:50.566Z,76.53
2023-01-18T19:25:18.974Z,76.99
2023-01-18T19:27:46.999Z,76.74
2023-01-18T19:30:18.115Z,76.84
2023-01-18T19:32:46.935Z,77.17
2023-01-18T19:35:14.894Z,77.25
2023-01-18T19:37:42.622Z,77.30
2023-01-18T19:40:13.110Z,77.21
2023-01-18T19:42:41.073Z,77.74
2023-01-18T19:45:11.465Z,77.87
2023-01-18T19:47:41.776Z,77.74
2023-01-18T19:50:10.406Z,77.85
2023-01-18T19:52:38.255Z,77.99
2023-01-18T19:55:06.692Z,78.25
2023-01-18T19:57:35.827Z,78.15
2023-01-18T20:00:07.025Z,78.38
2023-01-18T20:02:34.993Z,78.14
2023-01-18T20:05:03.597Z,78.17
2023-01-18T20:07:31.679Z,78.14
2023-01-18T20:09:59.443Z,78.30
2023-01-18T20:12:31.250Z,78.44
2023-01-18T20:15:00.516Z,78.44
2023-01-18T20:17:28.264Z,78.64
2023-01-18T20:19:55.903Z,78.62
2023-01-18T20:22:24.208Z,78.48
2023-01-18T20:24:51.913Z,78.77
2023-01-18T20:27:19.765Z,78.59
2023-01-18T20:29:47.634Z,78.51
2023-01-18T20:32:17.996Z,78.54
2023-01-18T20:34:46.989Z,79.15
2023-01-18T20:37:15.902Z,78.86
2023-01-18T20:39:43.655Z,79.03
2023-01-18T20:42:11.422Z,79.00
2023-01-18T20:44:40.421Z,79.25
2023-01-18T20:47:08.143Z,79.20
2023-01-18T20:49:40.301Z,79.19
2023-01-18T20:52:08.112Z,79.32
2023-01-18T20:54:36.585Z,79.16
2023-01-18T20:57:04.855Z,78.96
2023-01-18T20:59:32.681Z,79.09
2023-01-18T21:02:00.534Z,79.38
2023-01-18T21:04:28.422Z,79.50
2023-01-18T21:06:58.290Z,79.17
2023-01-18T21:09:26.428Z,79.34
2023-01-18T21:11:54.275Z,79.32
2023-01-18T21:14:22.498Z,79.68
2023-01-18T21:16:50.261Z,79.69
2023-01-18T21:19:18.257Z,79.65
2023-01-18T21:21:46.078Z,79.52
2023-01-18T21:24:15.219Z,79.66
2023-01-18T21:26:42.942Z,79.68
2023-01-18T21:29:10.618Z,79.61
2023-01-18T21:31:40.133Z,79.41
2023-01-18T21:34:08.722Z,79.59
2023-01-18T21:36:36.496Z,79.60
2023-01-18T21:39:04.338Z,79.85
2023-01-18T21:41:56.300Z,79.80
2023-01-18T21:44:41.627Z,79.68
2023-01-18T21:47:09.287Z,80.16
2023-01-18T21:52:59.455Z,80.02
2023-01-18T21:55:27.105Z,80.33
2023-01-18T21:58:19.119Z,80.27
2023-01-18T22:00:46.836Z,80.56
2023-01-18T22:03:15.299Z,80.52
2023-01-18T22:05:43.028Z,80.67
2023-01-18T22:08:10.795Z,80.98
2023-01-18T22:10:38.513Z,81.10
2023-01-18T22:13:07.589Z,81.05
2023-01-18T22:15:35.300Z,81.16
2023-01-18T22:18:03.363Z,81.36
2023-01-18T22:20:31.811Z,81.61
2023-01-18T22:22:59.712Z,81.76
2023-01-18T22:25:27.423Z,81.50
2023-01-18T22:27:55.147Z,81.89
2023-01-18T22:30:24.348Z,81.80
2023-01-18T22:32:52.004Z,81.99
2023-01-18T22:35:19.860Z,82.05
2023-01-18T22:37:47.561Z,82.12
2023-01-18T22:40:15.380Z,82.22
2023-01-18T22:42:43.109Z,82.45
2023-01-18T22:45:11.660Z,82.77
2023-01-18T22:47:43.213Z,82.45
2023-01-18T22:50:12.145Z,82.48
2023-01-18T22:52:39.895Z,82.54
2023-01-18T22:55:08.169Z,82.80
2023-01-18T22:57:35.901Z,82.83
2023-01-18T23:00:03.673Z,83.03
2023-01-18T23:02:33.265Z,82.93
2023-01-18T23:05:02.384Z,83.17
2023-01-18T23:07:30.136Z,83.07
2023-01-18T23:09:57.885Z,83.11
2023-01-18T23:12:25.595Z,83.21
2023-01-18T23:15:11.013Z,83.33
2023-01-18T23:17:43.153Z,83.49
2023-01-18T23:20:14.871Z,83.46
2023-01-18T23:22:42.672Z,83.97
2023-01-18T23:25:10.858Z,83.63
2023-01-18T23:27:38.615Z,84.05
2023-01-18T23:30:09.245Z,84.38
2023-01-18T23:32:37.384Z,84.30
2023-01-18T23:35:07.707Z,84.21
2023-01-18T23:37:36.805Z,84.52
2023-01-18T23:40:22.441Z,84.46
2023-01-18T23:43:07.756Z,84.63
2023-01-18T23:45:53.117Z,84.76
2023-01-18T23:48:38.737Z,84.77
2023-01-18T23:51:24.162Z,85.24
2023-01-18T23:54:11.703Z,85.40
2023-01-18T23:56:39.462Z,85.73
2023-01-18T23:59:07.077Z,86.16
